createdAt,value
2022-12-14T00:00:14.089Z,0.00
2022-12-14T00:01:14.059Z,0.00
2022-12-14T00:02:14.120Z,0.00
2022-12-14T00:03:14.103Z,0.00
2022-12-14T00:04:14.045Z,0.00
2022-12-14T00:05:14.034Z,0.00
2022-12-14T00:06:14.011Z,0.00
2022-12-14T00:07:14.000Z,0.00
2022-12-14T00:08:13.992Z,0.00
2022-12-14T00:09:13.973Z,0.00
2022-12-14T00:10:13.959Z,0.00
2022-12-14T00:11:13.930Z,0.00
2022-12-14T00:12:13.929Z,0.00
2022-12-14T00:13:13.919Z,0.00
2022-12-14T00:14:13.910Z,0.00
2022-12-14T00:15:13.891Z,0.00
2022-12-14T00:16:14.927Z,0.00
2022-12-14T00:17:13.872Z,0.00
2022-12-14T00:18:16.736Z,0.00
2022-12-14T00:19:14.840Z,0.00
2022-12-14T00:20:13.841Z,0.00
2022-12-14T00:21:14.825Z,0.00
2022-12-14T00:22:13.823Z,0.00
2022-12-14T00:23:13.791Z,0.00
2022-12-14T00:24:13.781Z,0.00
2022-12-14T00:25:13.776Z,0.00
2022-12-14T00:26:13.754Z,0.00
2022-12-14T00:27:13.739Z,0.00
2022-12-14T00:28:13.739Z,0.00
2022-12-14T00:29:13.795Z,0.00
2022-12-14T00:30:13.696Z,0.00
2022-12-14T00:31:13.745Z,0.00
2022-12-14T00:32:13.697Z,0.00
2022-12-14T00:33:13.678Z,0.00
2022-12-14T00:34:13.650Z,0.00
2022-12-14T00:35:13.640Z,0.00
2022-12-14T00:36:14.622Z,0.00
2022-12-14T00:37:13.623Z,0.00
2022-12-14T00:38:13.609Z,0.00
2022-12-14T00:39:13.591Z,0.00
2022-12-14T00:40:13.580Z,0.00
2022-12-14T00:41:13.575Z,0.00
2022-12-14T00:42:13.579Z,0.00
2022-12-14T00:43:13.585Z,0.00
2022-12-14T00:44:13.530Z,0.00
2022-12-14T00:45:13.511Z,0.00
2022-12-14T00:46:13.602Z,0.00
2022-12-14T00:47:13.481Z,0.00
2022-12-14T00:48:13.490Z,0.00
2022-12-14T00:49:13.549Z,0.00
2022-12-14T00:50:13.449Z,0.00
2022-12-14T00:51:13.446Z,0.00
2022-12-14T00:52:13.441Z,0.00
2022-12-14T00:53:13.419Z,0.00
2022-12-14T00:54:13.399Z,0.00
2022-12-14T00:55:13.396Z,0.00
2022-12-14T00:56:13.387Z,0.00
2022-12-14T00:57:13.379Z,0.00
2022-12-14T00:58:13.360Z,0.00
2022-12-14T00:59:13.349Z,0.00
2022-12-14T01:00:13.402Z,0.00
2022-12-14T01:01:13.631Z,0.00
2022-12-14T01:02:13.427Z,0.00
2022-12-14T01:03:13.368Z,0.00
2022-12-14T01:04:13.372Z,0.00
2022-12-14T01:05:13.277Z,0.00
2022-12-14T01:06:13.260Z,0.00
2022-12-14T01:07:13.249Z,0.00
2022-12-14T01:08:14.233Z,0.00
2022-12-14T01:09:13.223Z,0.00
2022-12-14T01:10:13.223Z,0.00
2022-12-14T01:11:13.184Z,0.00
2022-12-14T01:12:13.178Z,0.00
2022-12-14T01:13:14.160Z,0.00
2022-12-14T01:14:13.161Z,0.00
2022-12-14T01:15:13.205Z,0.00
2022-12-14T01:16:13.241Z,0.00
2022-12-14T01:17:13.121Z,0.00
2022-12-14T01:18:13.093Z,0.00
2022-12-14T01:19:13.110Z,0.00
2022-12-14T01:20:13.084Z,0.00
2022-12-14T01:21:13.051Z,0.00
2022-12-14T01:22:13.060Z,0.00
2022-12-14T01:23:13.044Z,0.00
2022-12-14T01:24:13.047Z,0.00
2022-12-14T01:25:13.022Z,0.00
2022-12-14T01:26:13.021Z,0.00
2022-12-14T01:27:12.990Z,0.00
2022-12-14T01:28:12.980Z,0.00
2022-12-14T01:29:12.990Z,0.00
2022-12-14T01:30:12.973Z,0.00
2022-12-14T01:31:13.017Z,0.00
2022-12-14T01:32:12.928Z,0.00
2022-12-14T01:33:12.905Z,0.00
2022-12-14T01:34:12.929Z,0.00
2022-12-14T01:35:12.901Z,0.00
2022-12-14T01:36:12.872Z,0.00
2022-12-14T01:37:12.857Z,0.00
2022-12-14T01:38:12.850Z,0.00
2022-12-14T01:39:12.850Z,0.00
2022-12-14T01:40:12.831Z,0.00
2022-12-14T01:41:12.820Z,0.00
2022-12-14T01:42:12.800Z,0.00
2022-12-14T01:43:12.792Z,0.00
2022-12-14T01:44:12.799Z,0.00
2022-12-14T01:45:12.760Z,0.00
2022-12-14T01:46:12.801Z,0.00
2022-12-14T01:47:13.120Z,0.00
2022-12-14T01:48:12.732Z,0.00
2022-12-14T01:49:12.722Z,0.00
2022-12-14T01:50:12.712Z,0.00
2022-12-14T01:51:12.691Z,0.00
2022-12-14T01:52:12.710Z,0.00
2022-12-14T01:53:12.650Z,0.00
2022-12-14T01:54:12.691Z,0.00
2022-12-14T01:55:12.645Z,0.00
2022-12-14T01:56:12.632Z,0.00
2022-12-14T01:57:12.624Z,0.00
2022-12-14T01:58:12.582Z,0.00
2022-12-14T01:59:12.594Z,0.00
2022-12-14T02:00:12.564Z,0.00
2022-12-14T02:01:12.608Z,0.00
2022-12-14T02:02:12.674Z,0.00
2022-12-14T02:03:12.665Z,0.00
2022-12-14T02:04:13.632Z,0.00
2022-12-14T02:05:12.502Z,0.00
2022-12-14T02:06:12.501Z,0.00
2022-12-14T02:07:12.506Z,0.00
2022-12-14T02:08:12.465Z,0.00
2022-12-14T02:09:12.463Z,0.00
2022-12-14T02:10:12.457Z,0.00
2022-12-14T02:11:12.443Z,0.00
2022-12-14T02:12:12.420Z,0.00
2022-12-14T02:13:12.400Z,0.00
2022-12-14T02:14:12.402Z,0.00
2022-12-14T02:15:12.384Z,0.00
2022-12-14T02:16:12.416Z,0.00
2022-12-14T02:17:12.351Z,0.00
2022-12-14T02:18:12.353Z,0.00
2022-12-14T02:19:12.331Z,0.00
2022-12-14T02:20:12.342Z,0.00
2022-12-14T02:21:13.330Z,0.00
2022-12-14T02:22:12.310Z,0.00
2022-12-14T02:23:12.281Z,0.00
2022-12-14T02:24:12.280Z,0.00
2022-12-14T02:25:12.264Z,0.00
2022-12-14T02:26:19.790Z,0.00
2022-12-14T02:27:12.230Z,0.00
2022-12-14T02:28:12.218Z,0.00
2022-12-14T02:29:12.211Z,0.00
2022-12-14T02:30:12.217Z,0.00
2022-12-14T02:31:12.258Z,0.00
2022-12-14T02:32:12.167Z,0.00
2022-12-14T02:33:12.186Z,0.00
2022-12-14T02:34:12.165Z,0.00
2022-12-14T02:35:12.141Z,0.00
2022-12-14T02:36:12.129Z,0.00
2022-12-14T02:37:12.099Z,0.00
2022-12-14T02:38:12.099Z,0.00
2022-12-14T02:39:12.100Z,0.00
2022-12-14T02:40:12.079Z,0.00
2022-12-14T02:41:12.049Z,0.00
2022-12-14T02:42:12.052Z,0.00
2022-12-14T02:43:12.035Z,0.00
2022-12-14T02:44:12.022Z,0.00
2022-12-14T02:45:12.043Z,0.00
2022-12-14T02:46:12.062Z,0.00
2022-12-14T02:47:12.056Z,0.00
2022-12-14T02:48:11.996Z,0.00
2022-12-14T02:49:11.961Z,0.00
2022-12-14T02:50:11.959Z,0.00
2022-12-14T02:51:11.953Z,0.00
2022-12-14T02:52:11.919Z,0.00
2022-12-14T02:53:11.907Z,0.00
2022-12-14T02:54:11.907Z,0.00
2022-12-14T02:55:11.890Z,0.00
2022-12-14T02:56:11.860Z,0.00
2022-12-14T02:57:11.858Z,0.00
2022-12-14T02:58:11.840Z,0.00
2022-12-14T02:59:11.832Z,0.00
2022-12-14T03:00:11.837Z,0.00
2022-12-14T03:01:11.950Z,0.00
2022-12-14T03:02:11.834Z,0.00
2022-12-14T03:03:11.778Z,0.00
2022-12-14T03:04:11.789Z,0.00
2022-12-14T03:05:11.774Z,0.00
2022-12-14T03:06:11.760Z,0.00
2022-12-14T03:07:11.736Z,0.00
2022-12-14T03:08:11.715Z,0.00
2022-12-14T03:09:11.721Z,0.00
2022-12-14T03:10:11.708Z,0.00
2022-12-14T03:11:11.684Z,0.00
2022-12-14T03:12:11.681Z,0.00
2022-12-14T03:13:11.648Z,0.00
2022-12-14T03:14:11.640Z,0.00
2022-12-14T03:15:11.641Z,0.00
2022-12-14T03:16:11.675Z,0.00
2022-12-14T03:17:14.172Z,0.00
2022-12-14T03:18:12.592Z,0.00
2022-12-14T03:19:11.578Z,0.00
2022-12-14T03:20:12.573Z,0.00
2022-12-14T03:21:11.551Z,0.00
2022-12-14T03:22:11.556Z,0.00
2022-12-14T03:23:11.548Z,0.00
2022-12-14T03:24:11.510Z,0.00
2022-12-14T03:25:11.501Z,0.00
2022-12-14T03:26:11.581Z,0.00
2022-12-14T03:27:11.493Z,0.00
2022-12-14T03:28:11.480Z,0.00
2022-12-14T03:29:11.465Z,0.00
2022-12-14T03:30:11.439Z,0.00
2022-12-14T03:31:11.507Z,0.00
2022-12-14T03:32:11.410Z,0.00
2022-12-14T03:33:11.409Z,0.00
2022-12-14T03:34:13.480Z,0.00
2022-12-14T03:35:11.382Z,0.00
2022-12-14T03:36:11.370Z,0.00
2022-12-14T03:37:11.355Z,0.00
2022-12-14T03:38:11.341Z,0.00
2022-12-14T03:39:11.343Z,0.00
2022-12-14T03:40:11.310Z,0.00
2022-12-14T03:41:11.323Z,0.00
2022-12-14T03:42:11.289Z,0.00
2022-12-14T03:43:11.273Z,0.00
2022-12-14T03:44:11.275Z,0.00
2022-12-14T03:45:11.252Z,0.00
2022-12-14T03:46:11.312Z,0.00
2022-12-14T03:47:11.220Z,0.00
2022-12-14T03:48:11.202Z,0.00
2022-12-14T03:49:11.211Z,0.00
2022-12-14T03:50:11.190Z,0.00
2022-12-14T04:03:57.521Z,0.00
2022-12-14T04:04:57.590Z,0.00
2022-12-14T04:05:57.540Z,0.00
2022-12-14T04:06:57.512Z,0.00
2022-12-14T04:07:57.451Z,0.00
2022-12-14T04:08:57.521Z,0.00
2022-12-14T04:09:57.533Z,0.00
2022-12-14T04:10:57.431Z,0.00
2022-12-14T04:11:57.402Z,0.00
2022-12-14T04:12:57.454Z,0.00
2022-12-14T04:13:57.382Z,0.00
2022-12-14T04:14:57.373Z,0.00
2022-12-14T04:15:57.420Z,0.00
2022-12-14T04:16:57.390Z,0.00
2022-12-14T04:17:57.385Z,0.00
2022-12-14T04:18:59.740Z,0.00
2022-12-14T04:20:18.393Z,0.00
2022-12-14T04:20:57.307Z,0.00
2022-12-14T04:21:57.351Z,0.00
2022-12-14T04:22:57.311Z,0.00
2022-12-14T04:23:57.324Z,0.00
2022-12-14T04:24:57.331Z,0.00
2022-12-14T04:25:57.260Z,0.00
2022-12-14T04:26:57.230Z,0.00
2022-12-14T04:27:57.242Z,0.00
2022-12-14T04:28:57.251Z,0.00
2022-12-14T04:29:57.303Z,0.00
2022-12-14T04:30:57.210Z,0.00
2022-12-14T04:31:57.206Z,0.00
2022-12-14T04:32:57.195Z,0.00
2022-12-14T04:33:57.122Z,0.00
2022-12-14T04:34:57.261Z,0.00
2022-12-14T04:35:57.203Z,0.00
2022-12-14T04:36:57.105Z,0.00
2022-12-14T04:37:57.061Z,0.00
2022-12-14T04:38:57.063Z,0.00
2022-12-14T04:39:57.075Z,0.00
2022-12-14T04:40:57.041Z,0.00
2022-12-14T04:41:57.047Z,0.00
2022-12-14T04:42:57.011Z,0.00
2022-12-14T04:43:57.052Z,0.00
2022-12-14T04:44:57.094Z,0.00
2022-12-14T04:45:57.050Z,0.00
2022-12-14T04:46:57.011Z,0.00
2022-12-14T04:47:56.940Z,0.00
2022-12-14T04:48:56.988Z,0.00
2022-12-14T04:49:56.932Z,0.00
2022-12-14T04:50:57.025Z,0.00
2022-12-14T04:52:01.923Z,0.00
2022-12-14T04:52:57.890Z,0.00
2022-12-14T04:53:56.870Z,0.00
2022-12-14T04:54:57.895Z,0.00
2022-12-14T04:55:56.940Z,0.00
2022-12-14T04:56:56.853Z,0.00
2022-12-14T04:57:56.823Z,0.00
2022-12-14T04:58:56.855Z,0.00
2022-12-14T04:59:56.800Z,0.00
2022-12-14T05:00:56.987Z,0.00
2022-12-14T05:01:57.041Z,0.00
2022-12-14T05:02:56.780Z,0.00
2022-12-14T05:03:56.792Z,0.00
2022-12-14T05:04:56.731Z,0.00
2022-12-14T05:05:57.753Z,0.00
2022-12-14T05:06:56.801Z,0.00
2022-12-14T05:07:56.694Z,0.00
2022-12-14T05:08:56.679Z,0.00
2022-12-14T05:09:56.715Z,0.00
2022-12-14T05:11:14.927Z,0.00
2022-12-14T05:11:57.630Z,0.00
2022-12-14T05:12:56.641Z,0.00
2022-12-14T05:13:56.643Z,0.00
2022-12-14T05:14:56.601Z,0.00
2022-12-14T05:15:56.690Z,0.00
2022-12-14T05:16:56.761Z,0.00
2022-12-14T05:17:56.562Z,0.00
2022-12-14T05:18:56.595Z,0.00
2022-12-14T05:19:56.580Z,0.00
2022-12-14T05:20:56.631Z,0.00
2022-12-14T05:21:56.595Z,0.00
2022-12-14T05:22:56.615Z,0.00
2022-12-14T05:23:56.503Z,0.00
2022-12-14T05:24:56.461Z,0.00
2022-12-14T05:25:56.595Z,0.00
2022-12-14T05:26:56.443Z,0.00
2022-12-14T05:27:56.544Z,0.00
2022-12-14T05:28:56.440Z,0.00
2022-12-14T05:29:56.407Z,0.00
2022-12-14T05:30:56.580Z,0.00
2022-12-14T05:31:56.387Z,0.00
2022-12-14T05:32:56.486Z,0.00
2022-12-14T05:33:56.374Z,0.00
2022-12-14T05:34:56.331Z,0.00
2022-12-14T05:35:56.392Z,0.00
2022-12-14T05:36:56.432Z,0.00
2022-12-14T05:37:56.301Z,0.00
2022-12-14T05:38:56.326Z,0.00
2022-12-14T05:39:56.283Z,0.00
2022-12-14T05:40:56.322Z,0.00
2022-12-14T05:41:56.370Z,0.00
2022-12-14T05:42:56.359Z,0.00
2022-12-14T05:43:56.232Z,0.00
2022-12-14T05:44:56.242Z,0.00
2022-12-14T05:45:56.217Z,0.00
2022-12-14T05:46:56.300Z,0.00
2022-12-14T05:47:56.262Z,0.00
2022-12-14T05:48:56.165Z,0.00
2022-12-14T05:49:56.172Z,0.00
2022-12-14T05:50:56.133Z,0.00
2022-12-14T05:51:56.153Z,0.00
2022-12-14T05:52:56.201Z,0.00
2022-12-14T05:53:56.102Z,0.00
2022-12-14T05:54:59.504Z,0.00
2022-12-14T05:55:57.146Z,0.00
2022-12-14T05:56:57.078Z,0.00
2022-12-14T05:57:56.072Z,0.00
2022-12-14T05:58:56.153Z,0.00
2022-12-14T05:59:56.058Z,0.00
2022-12-14T06:00:56.023Z,0.00
2022-12-14T06:01:56.124Z,0.00
2022-12-14T06:02:56.122Z,0.00
2022-12-14T06:03:57.020Z,0.00
2022-12-14T06:04:55.972Z,0.00
2022-12-14T06:05:55.952Z,0.00
2022-12-14T06:06:56.025Z,0.00
2022-12-14T06:07:55.995Z,0.00
2022-12-14T06:08:55.920Z,0.00
2022-12-14T06:09:55.892Z,0.00
2022-12-14T06:10:55.881Z,0.00
2022-12-14T06:11:55.892Z,0.00
2022-12-14T06:12:55.932Z,0.00
2022-12-14T06:13:55.850Z,0.00
2022-12-14T06:14:55.820Z,0.00
2022-12-14T06:15:55.854Z,0.00
2022-12-14T06:16:55.822Z,0.00
2022-12-14T06:17:55.792Z,0.00
2022-12-14T06:18:55.787Z,0.00
2022-12-14T06:19:55.775Z,0.00
2022-12-14T06:20:55.761Z,0.00
2022-12-14T06:21:55.751Z,0.00
2022-12-14T06:22:55.722Z,0.00
2022-12-14T06:23:55.738Z,0.00
2022-12-14T06:24:55.765Z,0.00
2022-12-14T06:25:55.762Z,0.00
2022-12-14T06:26:55.700Z,0.00
2022-12-14T06:27:55.702Z,0.00
2022-12-14T06:28:55.679Z,0.00
2022-12-14T06:29:55.652Z,0.00
2022-12-14T06:30:55.688Z,0.00
2022-12-14T06:31:55.634Z,0.00
2022-12-14T06:32:55.942Z,0.00
2022-12-14T06:33:55.603Z,0.00
2022-12-14T06:34:55.574Z,0.00
2022-12-14T06:35:55.574Z,0.00
2022-12-14T06:36:55.562Z,0.00
2022-12-14T06:37:55.563Z,0.00
2022-12-14T06:38:55.565Z,0.00
2022-12-14T06:39:55.519Z,0.00
2022-12-14T06:40:55.504Z,0.00
2022-12-14T06:41:55.515Z,0.00
2022-12-14T06:42:55.470Z,0.00
2022-12-14T06:43:55.462Z,0.00
2022-12-14T06:44:55.456Z,0.00
2022-12-14T06:45:56.534Z,0.00
2022-12-14T06:46:55.455Z,0.00
2022-12-14T06:47:55.412Z,0.00
2022-12-14T06:48:55.385Z,0.00
2022-12-14T06:49:55.411Z,0.00
2022-12-14T06:50:55.374Z,0.00
2022-12-14T06:51:55.417Z,0.00
2022-12-14T06:52:55.354Z,0.00
2022-12-14T06:53:55.332Z,0.00
2022-12-14T06:54:55.324Z,0.00
2022-12-14T06:55:55.350Z,0.00
2022-12-14T06:56:55.311Z,0.00
2022-12-14T06:57:55.297Z,0.00
2022-12-14T06:58:55.297Z,0.00
2022-12-14T06:59:55.265Z,0.00
2022-12-14T07:00:55.245Z,0.00
2022-12-14T07:01:55.347Z,0.00
2022-12-14T07:02:55.383Z,0.00
2022-12-14T07:03:55.261Z,0.00
2022-12-14T07:04:55.275Z,0.00
2022-12-14T07:05:55.195Z,0.00
2022-12-14T07:06:55.195Z,0.00
2022-12-14T07:07:55.209Z,0.00
2022-12-14T07:08:55.143Z,0.00
2022-12-14T07:09:55.235Z,0.00
2022-12-14T07:11:00.529Z,0.00
2022-12-14T07:11:56.136Z,0.00
2022-12-14T07:12:55.177Z,0.00
2022-12-14T07:13:55.133Z,0.00
2022-12-14T07:14:55.099Z,0.00
2022-12-14T07:15:55.156Z,0.00
2022-12-14T07:16:56.101Z,0.00
2022-12-14T07:17:55.067Z,0.00
2022-12-14T07:18:55.065Z,0.00
2022-12-14T07:19:55.007Z,0.00
2022-12-14T07:20:54.983Z,0.00
2022-12-14T07:21:55.093Z,0.00
2022-12-14T07:22:55.002Z,0.00
2022-12-14T07:23:54.968Z,0.00
2022-12-14T07:24:55.022Z,0.00
2022-12-14T07:25:55.018Z,0.00
2022-12-14T07:26:54.916Z,0.00
2022-12-14T07:27:57.019Z,0.00
2022-12-14T07:28:54.921Z,0.00
2022-12-14T07:29:54.902Z,0.00
2022-12-14T07:30:54.995Z,0.00
2022-12-14T07:31:54.856Z,0.00
2022-12-14T07:32:54.888Z,0.00
2022-12-14T07:33:54.825Z,0.00
2022-12-14T07:34:54.795Z,0.00
2022-12-14T07:35:54.829Z,5.62
2022-12-14T07:36:54.865Z,5.62
2022-12-14T07:37:54.807Z,5.62
2022-12-14T07:38:54.763Z,5.62
2022-12-14T07:39:54.765Z,5.62
2022-12-14T07:40:54.813Z,5.62
2022-12-14T07:41:54.805Z,5.62
2022-12-14T07:42:54.725Z,5.62
2022-12-14T07:43:54.717Z,5.62
2022-12-14T07:44:54.726Z,5.62
2022-12-14T07:45:54.704Z,5.62
2022-12-14T07:46:54.821Z,5.62
2022-12-14T07:47:54.663Z,5.62
2022-12-14T07:48:54.638Z,5.62
2022-12-14T07:49:54.679Z,5.62
2022-12-14T07:50:54.658Z,5.62
2022-12-14T07:51:56.657Z,5.62
2022-12-14T07:52:54.638Z,5.62
2022-12-14T07:53:54.577Z,5.62
2022-12-14T07:54:54.572Z,5.62
2022-12-14T07:55:54.571Z,5.62
2022-12-14T07:56:54.602Z,5.62
2022-12-14T07:57:54.538Z,5.62
2022-12-14T07:58:54.517Z,5.62
2022-12-14T07:59:57.592Z,5.62
2022-12-14T08:00:54.507Z,5.62
2022-12-14T08:01:54.553Z,5.62
2022-12-14T08:02:54.464Z,5.62
2022-12-14T08:03:55.475Z,5.62
2022-12-14T08:04:55.070Z,5.62
2022-12-14T08:05:54.606Z,5.62
2022-12-14T08:06:55.292Z,5.62
2022-12-14T08:07:54.381Z,11.25
2022-12-14T08:08:54.460Z,11.25
2022-12-14T08:09:55.414Z,11.25
2022-12-14T08:10:54.373Z,11.25
2022-12-14T08:11:54.334Z,16.88
2022-12-14T08:12:54.312Z,16.88
2022-12-14T08:13:54.341Z,11.25
2022-12-14T08:14:54.295Z,11.25
2022-12-14T08:15:55.406Z,11.25
2022-12-14T08:16:54.265Z,11.25
2022-12-14T08:17:54.325Z,11.25
2022-12-14T08:18:54.246Z,11.25
2022-12-14T08:19:54.226Z,16.88
2022-12-14T08:20:54.256Z,22.50
2022-12-14T08:21:54.194Z,22.50
2022-12-14T08:22:54.174Z,28.12
2022-12-14T08:23:54.194Z,22.50
2022-12-14T08:24:54.155Z,22.50
2022-12-14T08:25:54.165Z,16.88
2022-12-14T08:26:54.185Z,16.88
2022-12-14T08:27:54.120Z,16.88
2022-12-14T08:28:54.133Z,16.88
2022-12-14T08:29:54.094Z,16.88
2022-12-14T08:30:54.106Z,22.50
2022-12-14T08:31:54.145Z,22.50
2022-12-14T08:32:54.056Z,22.50
2022-12-14T08:33:54.056Z,22.50
2022-12-14T08:34:54.142Z,22.50
2022-12-14T08:35:54.039Z,22.50
2022-12-14T08:36:53.986Z,22.50
2022-12-14T08:37:53.997Z,22.50
2022-12-14T08:38:56.045Z,22.50
2022-12-14T08:39:53.980Z,22.50
2022-12-14T08:40:53.972Z,22.50
2022-12-14T08:41:53.957Z,22.50
2022-12-14T08:42:53.916Z,28.12
2022-12-14T08:43:54.020Z,28.12
2022-12-14T08:44:53.887Z,33.75
2022-12-14T08:45:53.912Z,33.75
2022-12-14T08:46:53.911Z,33.75
2022-12-14T08:47:53.916Z,33.75
2022-12-14T08:48:55.141Z,33.75
2022-12-14T08:49:53.825Z,28.12
2022-12-14T08:50:53.830Z,28.12
2022-12-14T08:51:53.857Z,28.12
2022-12-14T08:52:53.811Z,28.12
2022-12-14T08:53:53.903Z,28.12
2022-12-14T08:54:53.801Z,33.75
2022-12-14T08:55:53.807Z,33.75
2022-12-14T08:56:53.775Z,39.38
2022-12-14T08:57:53.718Z,45.00
2022-12-14T08:58:53.720Z,50.62
2022-12-14T09:00:02.369Z,50.62
2022-12-14T09:00:54.795Z,56.25
2022-12-14T09:01:53.924Z,61.88
2022-12-14T09:02:53.835Z,61.88
2022-12-14T09:03:54.683Z,61.88
2022-12-14T09:04:53.728Z,61.88
2022-12-14T09:05:53.649Z,67.50
2022-12-14T09:06:53.636Z,73.12
2022-12-14T09:07:53.644Z,73.12
2022-12-14T09:08:53.608Z,61.88
2022-12-14T09:09:53.678Z,56.25
2022-12-14T09:10:53.566Z,45.00
2022-12-14T09:11:53.616Z,39.38
2022-12-14T09:12:53.575Z,39.38
2022-12-14T09:15:05.066Z,39.38
2022-12-14T09:16:05.129Z,39.38
2022-12-14T09:17:05.094Z,33.75
2022-12-14T09:18:05.094Z,28.12
2022-12-14T09:19:05.034Z,22.50
2022-12-14T09:20:04.996Z,16.88
2022-12-14T09:21:05.015Z,16.88
2022-12-14T09:22:05.105Z,16.88
2022-12-14T09:23:04.966Z,16.88
2022-12-14T09:24:04.964Z,16.88
2022-12-14T09:25:04.915Z,16.88
2022-12-14T09:26:04.957Z,16.88
2022-12-14T09:27:04.906Z,16.88
2022-12-14T09:28:04.967Z,16.88
2022-12-14T09:29:04.906Z,16.88
2022-12-14T09:30:04.868Z,22.50
2022-12-14T09:31:04.833Z,22.50
2022-12-14T09:32:04.889Z,28.12
2022-12-14T09:33:04.906Z,33.75
2022-12-14T09:34:04.818Z,33.75
2022-12-14T09:35:04.799Z,28.12
2022-12-14T09:36:04.817Z,28.12
2022-12-14T09:37:04.825Z,28.12
2022-12-14T09:38:06.796Z,28.12
2022-12-14T09:39:04.930Z,33.75
2022-12-14T09:40:04.737Z,28.12
2022-12-14T09:41:07.257Z,28.12
2022-12-14T09:42:04.726Z,22.50
2022-12-14T09:43:04.679Z,22.50
2022-12-14T09:44:04.697Z,16.88
2022-12-14T09:45:04.672Z,16.88
2022-12-14T09:46:04.713Z,22.50
2022-12-14T09:47:04.686Z,22.50
2022-12-14T09:48:04.685Z,22.50
2022-12-14T10:04:07.320Z,5.62
2022-12-14T10:05:07.203Z,0.00
2022-12-14T10:06:07.173Z,5.62
2022-12-14T10:07:07.089Z,5.62
2022-12-14T10:08:07.098Z,5.62
2022-12-14T10:09:07.097Z,5.62
2022-12-14T10:10:07.270Z,11.25
2022-12-14T10:11:07.112Z,11.25
2022-12-14T10:12:07.116Z,11.25
2022-12-14T10:13:07.020Z,11.25
2022-12-14T10:14:28.032Z,16.88
2022-12-14T10:15:07.070Z,16.88
2022-12-14T10:16:07.026Z,11.25
2022-12-14T10:17:06.991Z,11.25
2022-12-14T10:18:06.979Z,11.25
2022-12-14T10:19:07.595Z,11.25
2022-12-14T10:20:06.969Z,16.88
2022-12-14T10:21:06.933Z,16.88
2022-12-14T10:22:06.978Z,22.50
2022-12-14T10:23:06.893Z,33.75
2022-12-14T10:24:06.897Z,39.38
2022-12-14T10:25:06.901Z,39.38
2022-12-14T10:26:06.871Z,39.38
2022-12-14T10:27:06.870Z,39.38
2022-12-14T10:28:11.532Z,39.38
2022-12-14T10:29:07.840Z,39.38
2022-12-14T10:30:06.838Z,33.75
2022-12-14T10:31:06.860Z,33.75
2022-12-14T10:32:06.836Z,33.75
2022-12-14T10:33:06.779Z,39.38
2022-12-14T10:34:12.008Z,39.38
2022-12-14T10:35:07.803Z,39.38
2022-12-14T10:36:07.758Z,45.00
2022-12-14T10:37:06.771Z,45.00
2022-12-14T10:38:06.750Z,50.62
2022-12-14T10:39:07.731Z,45.00
2022-12-14T10:40:13.731Z,45.00
2022-12-14T10:41:07.693Z,39.38
2022-12-14T10:42:06.701Z,39.38
2022-12-14T10:43:06.637Z,39.38
2022-12-14T10:44:06.630Z,33.75
2022-12-14T10:46:13.651Z,33.75
2022-12-14T10:47:07.683Z,39.38
2022-12-14T10:48:06.590Z,39.38
2022-12-14T10:49:06.658Z,39.38
2022-12-14T10:50:06.575Z,39.38
2022-12-14T10:51:06.650Z,39.38
2022-12-14T10:52:27.591Z,45.00
2022-12-14T10:53:06.527Z,45.00
2022-12-14T10:55:16.717Z,50.62
2022-12-14T10:56:24.293Z,50.62
2022-12-14T10:57:24.213Z,56.25
2022-12-14T10:58:25.224Z,56.25
2022-12-14T10:59:24.207Z,56.25
2022-12-14T11:00:23.169Z,56.25
2022-12-14T11:02:19.142Z,45.00
2022-12-14T11:03:27.618Z,39.38
2022-12-14T11:04:26.421Z,33.75
2022-12-14T11:05:32.518Z,28.12
2022-12-14T11:06:26.347Z,28.12
2022-12-14T11:07:18.830Z,28.12
2022-12-14T11:08:27.844Z,33.75
2022-12-14T11:09:27.314Z,33.75
2022-12-14T11:10:39.858Z,39.38
2022-12-14T11:11:26.323Z,39.38
2022-12-14T11:12:27.286Z,39.38
2022-12-14T11:13:26.250Z,39.38
2022-12-14T11:14:27.414Z,39.38
2022-12-14T11:16:41.735Z,45.00
2022-12-14T11:17:41.843Z,45.00
2022-12-14T11:18:41.648Z,45.00
2022-12-14T11:19:42.665Z,50.62
2022-12-14T11:20:41.641Z,61.88
2022-12-14T11:21:41.610Z,67.50
2022-12-14T11:23:02.625Z,61.88
2022-12-14T11:23:41.508Z,56.25
2022-12-14T11:24:41.609Z,50.62
2022-12-14T11:25:41.632Z,45.00
2022-12-14T11:26:43.552Z,45.00
2022-12-14T11:27:41.440Z,45.00
2022-12-14T11:28:41.880Z,45.00
2022-12-14T11:29:41.467Z,45.00
2022-12-14T11:30:41.495Z,50.62
2022-12-14T11:31:41.408Z,50.62
2022-12-14T11:32:41.471Z,45.00
2022-12-14T11:33:41.489Z,39.38
2022-12-14T11:34:41.398Z,33.75
2022-12-14T11:35:41.380Z,33.75
2022-12-14T11:36:41.359Z,33.75
2022-12-14T11:37:41.333Z,28.12
2022-12-14T11:38:42.372Z,28.12
2022-12-14T11:39:41.287Z,28.12
2022-12-14T11:40:41.296Z,28.12
2022-12-14T11:41:41.324Z,33.75
2022-12-14T11:42:41.270Z,33.75
2022-12-14T11:43:41.341Z,33.75
2022-12-14T11:44:41.218Z,28.12
2022-12-14T11:45:41.231Z,28.12
2022-12-14T11:47:03.289Z,28.12
2022-12-14T11:47:41.178Z,28.12
2022-12-14T11:48:41.290Z,33.75
2022-12-14T11:49:41.174Z,33.75
2022-12-14T11:50:41.224Z,33.75
2022-12-14T11:51:41.189Z,33.75
2022-12-14T11:52:41.131Z,28.12
2022-12-14T11:53:43.584Z,28.12
2022-12-14T11:54:41.093Z,33.75
2022-12-14T11:55:41.088Z,33.75
2022-12-14T11:56:41.129Z,33.75
2022-12-14T11:57:41.071Z,33.75
2022-12-14T11:58:41.134Z,39.38
2022-12-14T11:59:41.149Z,45.00
2022-12-14T12:00:46.627Z,45.00
2022-12-14T12:01:42.083Z,39.38
2022-12-14T12:02:41.056Z,39.38
2022-12-14T12:03:41.086Z,33.75
2022-12-14T12:04:40.969Z,33.75
2022-12-14T12:05:41.018Z,28.12
2022-12-14T12:06:40.998Z,28.12
2022-12-14T12:07:40.946Z,28.12
2022-12-14T12:08:40.948Z,28.12
2022-12-14T12:09:41.031Z,33.75
2022-12-14T12:10:40.958Z,33.75
2022-12-14T12:11:40.868Z,33.75
2022-12-14T12:12:40.931Z,33.75
2022-12-14T12:13:40.870Z,33.75
2022-12-14T12:14:40.928Z,39.38
2022-12-14T12:15:40.918Z,39.38
2022-12-14T12:16:40.870Z,39.38
2022-12-14T12:17:40.880Z,33.75
2022-12-14T12:18:46.288Z,33.75
2022-12-14T12:19:41.931Z,33.75
2022-12-14T12:20:40.830Z,33.75
2022-12-14T12:21:40.787Z,28.12
2022-12-14T12:22:40.798Z,28.12
2022-12-14T12:23:40.733Z,28.12
2022-12-14T12:25:24.858Z,28.12
2022-12-14T12:25:41.716Z,28.12
2022-12-14T12:26:49.879Z,28.12
2022-12-14T12:27:41.688Z,28.12
2022-12-14T12:29:01.740Z,28.12
2022-12-14T12:29:40.669Z,28.12
2022-12-14T12:30:40.713Z,28.12
2022-12-14T12:31:40.764Z,28.12
2022-12-14T12:32:40.620Z,28.12
2022-12-14T12:33:41.701Z,28.12
2022-12-14T12:34:40.609Z,28.12
2022-12-14T12:35:40.678Z,22.50
2022-12-14T12:36:51.723Z,22.50
2022-12-14T12:37:41.549Z,22.50
2022-12-14T12:38:40.640Z,22.50
2022-12-14T12:39:40.536Z,22.50
2022-12-14T12:40:41.648Z,16.88
2022-12-14T12:41:40.590Z,16.88
2022-12-14T12:42:40.535Z,22.50
2022-12-14T12:43:40.518Z,22.50
2022-12-14T12:44:40.538Z,22.50
2022-12-14T12:45:40.563Z,22.50
2022-12-14T12:46:48.501Z,16.88
2022-12-14T12:47:47.174Z,16.88
2022-12-14T12:48:41.418Z,16.88
2022-12-14T12:49:40.415Z,16.88
2022-12-14T12:50:40.487Z,16.88
2022-12-14T12:51:40.397Z,16.88
2022-12-14T12:52:40.400Z,22.50
2022-12-14T12:53:40.378Z,22.50
2022-12-14T12:54:40.419Z,22.50
2022-12-14T12:55:40.329Z,28.12
2022-12-14T12:56:40.475Z,28.12
2022-12-14T12:57:40.337Z,28.12
2022-12-14T12:58:40.349Z,28.12
2022-12-14T12:59:40.346Z,22.50
2022-12-14T13:00:40.286Z,22.50
2022-12-14T13:01:40.328Z,22.50
2022-12-14T13:02:40.408Z,22.50
2022-12-14T13:03:40.315Z,28.12
2022-12-14T13:04:40.268Z,28.12
2022-12-14T13:05:48.702Z,28.12
2022-12-14T13:06:41.257Z,22.50
2022-12-14T13:07:41.209Z,22.50
2022-12-14T13:08:40.181Z,28.12
2022-12-14T13:09:40.211Z,28.12
2022-12-14T13:10:50.604Z,28.12
2022-12-14T13:11:41.308Z,28.12
2022-12-14T13:12:40.140Z,28.12
2022-12-14T13:13:40.129Z,28.12
2022-12-14T13:14:40.158Z,28.12
2022-12-14T13:15:40.162Z,28.12
2022-12-14T13:16:40.126Z,22.50
2022-12-14T13:17:40.118Z,22.50
2022-12-14T13:19:50.411Z,22.50
2022-12-14T13:20:41.091Z,22.50
2022-12-14T13:21:42.095Z,28.12
2022-12-14T13:22:40.008Z,28.12
2022-12-14T13:23:47.336Z,28.12
2022-12-14T13:24:40.970Z,28.12
2022-12-14T13:25:40.952Z,28.12
2022-12-14T13:27:40.963Z,22.50
2022-12-14T13:28:40.049Z,22.50
2022-12-14T13:29:39.929Z,22.50
2022-12-14T13:30:39.937Z,22.50
2022-12-14T13:31:39.980Z,22.50
2022-12-14T13:32:39.868Z,22.50
2022-12-14T13:33:39.958Z,28.12
2022-12-14T13:35:00.958Z,28.12
2022-12-14T13:35:40.211Z,28.12
2022-12-14T13:36:41.292Z,28.12
2022-12-14T13:37:39.916Z,22.50
2022-12-14T13:38:40.652Z,22.50
2022-12-14T13:39:40.203Z,22.50
2022-12-14T13:40:41.931Z,22.50
2022-12-14T13:41:39.887Z,22.50
2022-12-14T13:42:39.788Z,22.50
2022-12-14T13:43:39.849Z,28.12